Sharps Island — WDB2219 — position and weather

sailwx.info

Track history (hours):
 
Tides and Currents Weather Stations Pressure Air Temp Water Temp Dewpoint Dewpoint Depression Visibility Wind Speed Wind Dir Waves Ship Positions

Sharps Island

Owner: Langenfelder Marine Inc., Stevensville, MD. More information available from US FCC via Universal Licensing System and Coast Guard Vessel Documentation Center.

Last reported at 2015-May-24 07:28 UTC. Time now 2015-May-26 09:49 UTC.
Position N 39°02' W 076°18'.

Length 25 m.

Type: Tug. MMSI: 338126265.

Date/timePositionNaut miles runAvg speedWind from/ knotsBaromVisibWave heightAir tempDewpointWater temp
2015-May-24 07:28N 39°02' W 076°18'0 0.0
2015-May-24 06:26N 39°02' W 076°18'  
2015-May-21 11:09N 39°20' W 076°12'5 6.8
2015-May-21 10:25N 39°23' W 076°06'6 7.1
2015-May-21 09:33N 39°27' W 075°60'8 8.6
2015-May-21 08:33N 39°32' W 075°51'9 9.4
2015-May-21 07:33N 39°33' W 075°39'6 5.8
2015-May-21 06:33N 39°30' W 075°33'7 7.5
2015-May-21 05:33N 39°23' W 075°28'8 8.3
2015-May-21 04:34N 39°17' W 075°21'8 8.1
2015-May-21 03:33N 39°10' W 075°15'1 0.0
2015-May-20 07:03N 39°11' W 075°16'5 9.2
2015-May-20 06:33N 39°15' W 075°19'8 8.4
2015-May-20 05:33N 39°21' W 075°26'7 6.7
2015-May-20 04:33N 39°26' W 075°32'5 5.5
2015-May-20 03:33N 39°32' W 075°33'5 4.8
2015-May-20 02:33N 39°33' W 075°39'9 8.6
2015-May-20 01:33N 39°32' W 075°50'9 8.7
2015-May-20 00:33N 39°27' W 075°59'8 8.1
2015-May-19 23:33N 39°22' W 076°07'30 2.0
2015-May-19 08:27N 38°56' W 076°25'30 7.2
2015-May-19 04:17N 39°22' W 076°08'6 7.1
2015-May-19 03:25N 39°26' W 076°01'6 6.7
2015-May-19 02:33N 39°30' W 075°56'6 5.7
2015-May-19 01:33N 39°32' W 075°49'6 5.5
2015-May-19 00:33N 39°33' W 075°42'5 5.3
2015-May-18 23:33N 39°34' W 075°35'4 3.9
2015-May-18 22:33N 39°30' W 075°33'5 4.8
2015-May-18 21:33N 39°25' W 075°31'5 4.8
2015-May-18 20:33N 39°22' W 075°27'5 4.9
2015-May-18 19:33N 39°18' W 075°23'5 5.0
2015-May-18 18:33N 39°14' W 075°18'5 5.1
2015-May-18 17:33N 39°10' W 075°15'6 5.7
2015-May-18 16:32N 39°05' W 075°10'11 3.4
2015-May-18 13:24N 39°14' W 075°02'0 0.0
2015-May-18 12:33N 39°14' W 075°02'0 0.0
2015-May-18 11:33N 39°14' W 075°02'0 0.0
2015-May-18 10:20N 39°14' W 075°02'0 0.0
2015-May-18 09:25N 39°14' W 075°02'0 0.0
2015-May-18 08:25N 39°14' W 075°02'0 0.0
2015-May-18 07:19N 39°14' W 075°02'0 0.0
2015-May-18 06:25N 39°14' W 075°02'1 0.2
2015-May-18 01:33N 39°13' W 075°01'10 4.3
2015-May-17 23:17N 39°09' W 075°13'4 5.7
2015-May-17 22:32N 39°12' W 075°16'7 7.1
2015-May-17 21:33N 39°17' W 075°22'9 9.3
2015-May-17 20:34N 39°24' W 075°30'9 9.0
2015-May-17 19:33N 39°33' W 075°33'7 6.5
2015-May-17 18:33N 39°33' W 075°41'6 6.1
2015-May-17 17:33N 39°32' W 075°49'6 5.6
2015-May-17 16:33N 39°30' W 075°56'7 6.8
2015-May-17 15:33N 39°25' W 076°02'7 6.7
2015-May-17 14:33N 39°21' W 076°10'15 7.4
2015-May-17 12:32N 39°09' W 076°19'7 0.8
2015-May-17 04:21N 39°02' W 076°18'0 0.0
2015-May-17 03:33N 39°02' W 076°18'0 0.0
2015-May-17 02:33N 39°02' W 076°18'0 0.0
2015-May-17 01:30N 39°02' W 076°18'0 0.0
2015-May-17 00:30N 39°02' W 076°18'0 0.0
2015-May-15 13:15N 39°02' W 076°18'0 0.0
2015-May-15 12:33N 39°02' W 076°18'0 0.0
2015-May-15 11:09N 39°02' W 076°18'0 0.0
2015-May-15 08:18N 39°02' W 076°18'0 0.0
2015-May-15 02:27N 39°02' W 076°18'  
Track history (hours):
 
Tides and Currents Weather Stations Pressure Air Temp Water Temp Dewpoint Dewpoint Depression Visibility Wind Speed Wind Dir Waves Ship Positions

Sharps Island

Owner: Langenfelder Marine Inc., Stevensville, MD. More information available from US FCC via Universal Licensing System and Coast Guard Vessel Documentation Center.

Last reported at 2015-May-24 07:28 UTC. Time now 2015-May-26 09:49 UTC.
Position N 39°02' W 076°18'.

Length 25 m.

Type: Tug. MMSI: 338126265.

Date/timePositionNaut miles runAvg speedWind from/ knotsBaromVisibWave heightAir tempDewpointWater temp
2015-May-24 07:28N 39°02' W 076°18'0 0.0
2015-May-24 06:26N 39°02' W 076°18'  
2015-May-21 11:09N 39°20' W 076°12'5 6.8
2015-May-21 10:25N 39°23' W 076°06'6 7.1
2015-May-21 09:33N 39°27' W 075°60'8 8.6
2015-May-21 08:33N 39°32' W 075°51'9 9.4
2015-May-21 07:33N 39°33' W 075°39'6 5.8
2015-May-21 06:33N 39°30' W 075°33'7 7.5
2015-May-21 05:33N 39°23' W 075°28'8 8.3
2015-May-21 04:34N 39°17' W 075°21'8 8.1
2015-May-21 03:33N 39°10' W 075°15'1 0.0
2015-May-20 07:03N 39°11' W 075°16'5 9.2
2015-May-20 06:33N 39°15' W 075°19'8 8.4
2015-May-20 05:33N 39°21' W 075°26'7 6.7
2015-May-20 04:33N 39°26' W 075°32'5 5.5
2015-May-20 03:33N 39°32' W 075°33'5 4.8
2015-May-20 02:33N 39°33' W 075°39'9 8.6
2015-May-20 01:33N 39°32' W 075°50'9 8.7
2015-May-20 00:33N 39°27' W 075°59'8 8.1
2015-May-19 23:33N 39°22' W 076°07'30 2.0
2015-May-19 08:27N 38°56' W 076°25'30 7.2
2015-May-19 04:17N 39°22' W 076°08'6 7.1
2015-May-19 03:25N 39°26' W 076°01'6 6.7
2015-May-19 02:33N 39°30' W 075°56'6 5.7
2015-May-19 01:33N 39°32' W 075°49'6 5.5
2015-May-19 00:33N 39°33' W 075°42'5 5.3
2015-May-18 23:33N 39°34' W 075°35'4 3.9
2015-May-18 22:33N 39°30' W 075°33'5 4.8
2015-May-18 21:33N 39°25' W 075°31'5 4.8
2015-May-18 20:33N 39°22' W 075°27'5 4.9
2015-May-18 19:33N 39°18' W 075°23'5 5.0
2015-May-18 18:33N 39°14' W 075°18'5 5.1
2015-May-18 17:33N 39°10' W 075°15'6 5.7
2015-May-18 16:32N 39°05' W 075°10'11 3.4
2015-May-18 13:24N 39°14' W 075°02'0 0.0
2015-May-18 12:33N 39°14' W 075°02'0 0.0
2015-May-18 11:33N 39°14' W 075°02'0 0.0
2015-May-18 10:20N 39°14' W 075°02'0 0.0
2015-May-18 09:25N 39°14' W 075°02'0 0.0
2015-May-18 08:25N 39°14' W 075°02'0 0.0
2015-May-18 07:19N 39°14' W 075°02'0 0.0
2015-May-18 06:25N 39°14' W 075°02'1 0.2
2015-May-18 01:33N 39°13' W 075°01'10 4.3
2015-May-17 23:17N 39°09' W 075°13'4 5.7
2015-May-17 22:32N 39°12' W 075°16'7 7.1
2015-May-17 21:33N 39°17' W 075°22'9 9.3
2015-May-17 20:34N 39°24' W 075°30'9 9.0
2015-May-17 19:33N 39°33' W 075°33'7 6.5
2015-May-17 18:33N 39°33' W 075°41'6 6.1
2015-May-17 17:33N 39°32' W 075°49'6 5.6
2015-May-17 16:33N 39°30' W 075°56'7 6.8
2015-May-17 15:33N 39°25' W 076°02'7 6.7
2015-May-17 14:33N 39°21' W 076°10'15 7.4
2015-May-17 12:32N 39°09' W 076°19'7 0.8
2015-May-17 04:21N 39°02' W 076°18'0 0.0
2015-May-17 03:33N 39°02' W 076°18'0 0.0
2015-May-17 02:33N 39°02' W 076°18'0 0.0
2015-May-17 01:30N 39°02' W 076°18'0 0.0
2015-May-17 00:30N 39°02' W 076°18'0 0.0
2015-May-15 13:15N 39°02' W 076°18'0 0.0
2015-May-15 12:33N 39°02' W 076°18'0 0.0
2015-May-15 11:09N 39°02' W 076°18'0 0.0
2015-May-15 08:18N 39°02' W 076°18'0 0.0
2015-May-15 02:27N 39°02' W 076°18'  

Dump ship's entire track history